sensor_id;sensor_type;location;lat;lon;timestamp;temperature;humidity
25208;DHT22;13153;52.316;21.166;2024-03-02T00:01:07;7.90;25.30
25208;DHT22;13153;52.316;21.166;2024-03-02T00:03:33;7.80;29.00
25208;DHT22;13153;52.316;21.166;2024-03-02T00:05:59;7.80;37.30
25208;DHT22;13153;52.316;21.166;2024-03-02T00:08:25;7.80;38.50
25208;DHT22;13153;52.316;21.166;2024-03-02T00:10:51;7.80;40.30
25208;DHT22;13153;52.316;21.166;2024-03-02T00:13:22;7.90;33.90
25208;DHT22;13153;52.316;21.166;2024-03-02T00:15:55;7.90;32.00
25208;DHT22;13153;52.316;21.166;2024-03-02T00:18:35;7.80;30.00
25208;DHT22;13153;52.316;21.166;2024-03-02T00:21:01;7.80;38.20
25208;DHT22;13153;52.316;21.166;2024-03-02T00:23:32;7.70;50.00
25208;DHT22;13153;52.316;21.166;2024-03-02T00:26:00;7.70;58.50
25208;DHT22;13153;52.316;21.166;2024-03-02T00:28:36;7.80;52.50
25208;DHT22;13153;52.316;21.166;2024-03-02T00:31:07;7.80;43.80
25208;DHT22;13153;52.316;21.166;2024-03-02T00:36:03;7.70;40.20
25208;DHT22;13153;52.316;21.166;2024-03-02T00:38:30;7.70;64.10
25208;DHT22;13153;52.316;21.166;2024-03-02T00:41:30;7.60;66.40
25208;DHT22;13153;52.316;21.166;2024-03-02T00:43:57;7.70;71.00
25208;DHT22;13153;52.316;21.166;2024-03-02T00:46:46;7.70;66.70
25208;DHT22;13153;52.316;21.166;2024-03-02T00:51:51;7.50;87.10
25208;DHT22;13153;52.316;21.166;2024-03-02T00:54:20;7.50;91.00
25208;DHT22;13153;52.316;21.166;2024-03-02T00:56:50;7.50;92.70
25208;DHT22;13153;52.316;21.166;2024-03-02T00:59:16;7.50;90.00
25208;DHT22;13153;52.316;21.166;2024-03-02T01:01:42;7.60;83.00
25208;DHT22;13153;52.316;21.166;2024-03-02T01:04:09;7.50;83.50
25208;DHT22;13153;52.316;21.166;2024-03-02T01:06:37;7.50;86.80
25208;DHT22;13153;52.316;21.166;2024-03-02T01:09:03;7.50;80.60
25208;DHT22;13153;52.316;21.166;2024-03-02T01:11:29;7.50;79.50
25208;DHT22;13153;52.316;21.166;2024-03-02T01:13:55;7.50;78.90
25208;DHT22;13153;52.316;21.166;2024-03-02T01:16:21;7.50;75.40
25208;DHT22;13153;52.316;21.166;2024-03-02T01:18:47;7.50;72.00
25208;DHT22;13153;52.316;21.166;2024-03-02T01:21:14;7.50;71.30
25208;DHT22;13153;52.316;21.166;2024-03-02T01:23:40;7.50;76.50
25208;DHT22;13153;52.316;21.166;2024-03-02T01:26:06;7.40;82.60
25208;DHT22;13153;52.316;21.166;2024-03-02T01:28:32;7.40;87.60
25208;DHT22;13153;52.316;21.166;2024-03-02T01:30:59;7.40;92.30
25208;DHT22;13153;52.316;21.166;2024-03-02T01:33:24;7.30;93.80
25208;DHT22;13153;52.316;21.166;2024-03-02T01:35:50;7.30;95.30
25208;DHT22;13153;52.316;21.166;2024-03-02T01:38:16;7.30;99.90
25208;DHT22;13153;52.316;21.166;2024-03-02T01:40:42;7.30;99.10
25208;DHT22;13153;52.316;21.166;2024-03-02T01:43:10;7.30;98.30
25208;DHT22;13153;52.316;21.166;2024-03-02T01:45:36;7.30;96.30
25208;DHT22;13153;52.316;21.166;2024-03-02T01:48:04;7.30;98.30
25208;DHT22;13153;52.316;21.166;2024-03-02T01:50:32;7.30;93.80
25208;DHT22;13153;52.316;21.166;2024-03-02T01:52:59;7.30;94.50
25208;DHT22;13153;52.316;21.166;2024-03-02T01:55:26;7.30;94.70
25208;DHT22;13153;52.316;21.166;2024-03-02T01:57:56;7.30;94.50
25208;DHT22;13153;52.316;21.166;2024-03-02T02:00:23;7.30;94.70
25208;DHT22;13153;52.316;21.166;2024-03-02T02:02:51;7.30;94.40
25208;DHT22;13153;52.316;21.166;2024-03-02T02:05:18;7.20;96.00
25208;DHT22;13153;52.316;21.166;2024-03-02T02:07:44;7.20;98.80
25208;DHT22;13153;52.316;21.166;2024-03-02T02:10:10;7.20;99.40
25208;DHT22;13153;52.316;21.166;2024-03-02T02:12:39;7.20;99.50
25208;DHT22;13153;52.316;21.166;2024-03-02T02:17:50;7.20;98.50
25208;DHT22;13153;52.316;21.166;2024-03-02T02:20:15;7.20;96.00
25208;DHT22;13153;52.316;21.166;2024-03-02T02:22:56;7.20;98.10
25208;DHT22;13153;52.316;21.166;2024-03-02T02:25:29;7.20;98.70
25208;DHT22;13153;52.316;21.166;2024-03-02T02:27:55;7.20;99.70
25208;DHT22;13153;52.316;21.166;2024-03-02T02:30:27;7.20;99.90
25208;DHT22;13153;52.316;21.166;2024-03-02T02:32:55;7.20;99.90
25208;DHT22;13153;52.316;21.166;2024-03-02T02:35:21;7.20;99.20
25208;DHT22;13153;52.316;21.166;2024-03-02T02:37:47;7.10;99.90
25208;DHT22;13153;52.316;21.166;2024-03-02T02:40:15;7.20;99.90
25208;DHT22;13153;52.316;21.166;2024-03-02T02:42:42;7.10;99.90
25208;DHT22;13153;52.316;21.166;2024-03-02T02:45:08;7.10;99.90
25208;DHT22;13153;52.316;21.166;2024-03-02T02:47:34;7.10;99.90
25208;DHT22;13153;52.316;21.166;2024-03-02T02:50:03;7.00;99.90
25208;DHT22;13153;52.316;21.166;2024-03-02T02:52:34;7.00;99.90
25208;DHT22;13153;52.316;21.166;2024-03-02T02:55:03;7.00;99.90
25208;DHT22;13153;52.316;21.166;2024-03-02T02:57:36;7.00;99.90
25208;DHT22;13153;52.316;21.166;2024-03-02T03:00:07;7.00;99.90
25208;DHT22;13153;52.316;21.166;2024-03-02T03:02:41;7.00;99.90
25208;DHT22;13153;52.316;21.166;2024-03-02T03:05:12;7.00;99.90
25208;DHT22;13153;52.316;21.166;2024-03-02T03:07:40;7.00;99.90
25208;DHT22;13153;52.316;21.166;2024-03-02T03:10:07;7.00;99.90
25208;DHT22;13153;52.316;21.166;2024-03-02T03:12:34;7.00;99.90
25208;DHT22;13153;52.316;21.166;2024-03-02T03:15:00;7.00;99.90
25208;DHT22;13153;52.316;21.166;2024-03-02T03:17:27;6.90;99.90
25208;DHT22;13153;52.316;21.166;2024-03-02T03:19:53;6.80;99.90
25208;DHT22;13153;52.316;21.166;2024-03-02T03:22:19;6.90;99.90
25208;DHT22;13153;52.316;21.166;2024-03-02T03:24:44;6.80;99.90
25208;DHT22;13153;52.316;21.166;2024-03-02T03:27:10;6.80;99.90
25208;DHT22;13153;52.316;21.166;2024-03-02T03:29:37;6.80;99.90
25208;DHT22;13153;52.316;21.166;2024-03-02T03:32:03;6.80;99.90
25208;DHT22;13153;52.316;21.166;2024-03-02T03:34:32;6.80;99.90
25208;DHT22;13153;52.316;21.166;2024-03-02T03:36:58;6.80;99.90
25208;DHT22;13153;52.316;21.166;2024-03-02T03:39:24;6.70;99.90
25208;DHT22;13153;52.316;21.166;2024-03-02T03:41:50;6.70;99.90
25208;DHT22;13153;52.316;21.166;2024-03-02T03:44:17;6.70;99.90
25208;DHT22;13153;52.316;21.166;2024-03-02T03:46:43;6.70;99.90
25208;DHT22;13153;52.316;21.166;2024-03-02T03:49:09;6.70;99.90
25208;DHT22;13153;52.316;21.166;2024-03-02T03:51:34;6.80;99.90
25208;DHT22;13153;52.316;21.166;2024-03-02T03:54:01;6.80;99.90
25208;DHT22;13153;52.316;21.166;2024-03-02T03:56:26;6.80;99.90
25208;DHT22;13153;52.316;21.166;2024-03-02T03:58:52;6.80;99.90
25208;DHT22;13153;52.316;21.166;2024-03-02T04:01:18;6.80;99.90
25208;DHT22;13153;52.316;21.166;2024-03-02T04:03:44;6.80;99.90
25208;DHT22;13153;52.316;21.166;2024-03-02T04:06:10;6.80;99.90
25208;DHT22;13153;52.316;21.166;2024-03-02T04:08:39;6.70;99.90
25208;DHT22;13153;52.316;21.166;2024-03-02T04:11:06;6.80;99.90
25208;DHT22;13153;52.316;21.166;2024-03-02T04:13:33;6.80;99.90
25208;DHT22;13153;52.316;21.166;2024-03-02T04:15:59;6.80;99.90
25208;DHT22;13153;52.316;21.166;2024-03-02T04:18:25;6.70;99.90
25208;DHT22;13153;52.316;21.166;2024-03-02T04:20:51;6.80;99.90
25208;DHT22;13153;52.316;21.166;2024-03-02T04:23:16;6.80;99.90
25208;DHT22;13153;52.316;21.166;2024-03-02T04:25:42;6.80;99.90
25208;DHT22;13153;52.316;21.166;2024-03-02T04:28:08;6.80;99.90
25208;DHT22;13153;52.316;21.166;2024-03-02T04:30:33;6.70;99.90
25208;DHT22;13153;52.316;21.166;2024-03-02T04:32:59;6.70;99.90
25208;DHT22;13153;52.316;21.166;2024-03-02T04:35:26;6.70;99.90
25208;DHT22;13153;52.316;21.166;2024-03-02T04:37:52;6.70;99.90
25208;DHT22;13153;52.316;21.166;2024-03-02T04:40:17;6.70;99.90
25208;DHT22;13153;52.316;21.166;2024-03-02T04:42:43;6.60;99.90
25208;DHT22;13153;52.316;21.166;2024-03-02T04:45:09;6.60;99.90
25208;DHT22;13153;52.316;21.166;2024-03-02T04:47:35;6.60;99.90
25208;DHT22;13153;52.316;21.166;2024-03-02T04:50:02;6.50;99.90
25208;DHT22;13153;52.316;21.166;2024-03-02T04:52:28;6.50;99.90
25208;DHT22;13153;52.316;21.166;2024-03-02T04:54:53;6.40;99.90
25208;DHT22;13153;52.316;21.166;2024-03-02T04:57:37;6.50;99.90
25208;DHT22;13153;52.316;21.166;2024-03-02T05:00:03;6.50;99.90
25208;DHT22;13153;52.316;21.166;2024-03-02T05:02:32;6.40;99.90
25208;DHT22;13153;52.316;21.166;2024-03-02T05:04:58;6.50;99.90
25208;DHT22;13153;52.316;21.166;2024-03-02T05:07:23;6.40;99.90
25208;DHT22;13153;52.316;21.166;2024-03-02T05:09:49;6.50;99.90
25208;DHT22;13153;52.316;21.166;2024-03-02T05:12:15;6.50;99.90
25208;DHT22;13153;52.316;21.166;2024-03-02T05:14:41;6.50;99.90
25208;DHT22;13153;52.316;21.166;2024-03-02T05:17:06;6.50;99.90
25208;DHT22;13153;52.316;21.166;2024-03-02T05:19:32;6.40;99.90
25208;DHT22;13153;52.316;21.166;2024-03-02T05:21:58;6.40;99.90
25208;DHT22;13153;52.316;21.166;2024-03-02T05:24:24;6.50;99.90
25208;DHT22;13153;52.316;21.166;2024-03-02T05:26:52;6.50;99.90
25208;DHT22;13153;52.316;21.166;2024-03-02T05:29:18;6.40;99.90
25208;DHT22;13153;52.316;21.166;2024-03-02T05:31:44;6.40;99.90
25208;DHT22;13153;52.316;21.166;2024-03-02T05:34:10;6.40;99.90
25208;DHT22;13153;52.316;21.166;2024-03-02T05:36:35;6.50;99.90
25208;DHT22;13153;52.316;21.166;2024-03-02T05:39:04;6.50;99.90
25208;DHT22;13153;52.316;21.166;2024-03-02T05:41:35;6.40;99.90
25208;DHT22;13153;52.316;21.166;2024-03-02T05:44:01;6.50;99.90
25208;DHT22;13153;52.316;21.166;2024-03-02T05:46:27;6.50;99.90
25208;DHT22;13153;52.316;21.166;2024-03-02T05:48:53;6.50;99.90
25208;DHT22;13153;52.316;21.166;2024-03-02T05:51:19;6.50;99.90
25208;DHT22;13153;52.316;21.166;2024-03-02T05:53:45;6.50;99.90
25208;DHT22;13153;52.316;21.166;2024-03-02T05:56:10;6.50;99.90
25208;DHT22;13153;52.316;21.166;2024-03-02T05:58:37;6.50;99.90
25208;DHT22;13153;52.316;21.166;2024-03-02T06:01:22;6.50;99.90
25208;DHT22;13153;52.316;21.166;2024-03-02T06:03:56;6.40;99.90
25208;DHT22;13153;52.316;21.166;2024-03-02T06:06:26;6.50;99.90
25208;DHT22;13153;52.316;21.166;2024-03-02T06:08:52;6.50;99.90
25208;DHT22;13153;52.316;21.166;2024-03-02T06:11:19;6.50;99.90
25208;DHT22;13153;52.316;21.166;2024-03-02T06:13:45;6.60;99.90
25208;DHT22;13153;52.316;21.166;2024-03-02T06:16:12;6.60;99.90
25208;DHT22;13153;52.316;21.166;2024-03-02T06:18:38;6.60;99.90
25208;DHT22;13153;52.316;21.166;2024-03-02T06:21:04;6.60;99.90
25208;DHT22;13153;52.316;21.166;2024-03-02T06:23:29;6.60;99.90
25208;DHT22;13153;52.316;21.166;2024-03-02T06:25:55;6.70;99.90
25208;DHT22;13153;52.316;21.166;2024-03-02T06:28:21;6.60;99.90
25208;DHT22;13153;52.316;21.166;2024-03-02T06:30:47;6.60;99.90
25208;DHT22;13153;52.316;21.166;2024-03-02T06:33:12;6.60;99.90
25208;DHT22;13153;52.316;21.166;2024-03-02T06:35:38;6.60;99.90
25208;DHT22;13153;52.316;21.166;2024-03-02T06:38:04;6.60;99.90
25208;DHT22;13153;52.316;21.166;2024-03-02T06:40:30;6.70;99.90
25208;DHT22;13153;52.316;21.166;2024-03-02T06:42:56;6.70;99.90
25208;DHT22;13153;52.316;21.166;2024-03-02T06:45:21;6.70;99.90
25208;DHT22;13153;52.316;21.166;2024-03-02T06:47:47;6.70;99.90
25208;DHT22;13153;52.316;21.166;2024-03-02T06:50:13;6.80;99.90
25208;DHT22;13153;52.316;21.166;2024-03-02T06:52:39;6.60;99.90
25208;DHT22;13153;52.316;21.166;2024-03-02T06:55:05;6.70;99.90
25208;DHT22;13153;52.316;21.166;2024-03-02T06:57:31;6.70;99.90
25208;DHT22;13153;52.316;21.166;2024-03-02T06:59:57;6.60;99.90
25208;DHT22;13153;52.316;21.166;2024-03-02T07:02:27;6.70;99.90
25208;DHT22;13153;52.316;21.166;2024-03-02T07:04:53;6.70;99.90
25208;DHT22;13153;52.316;21.166;2024-03-02T07:07:19;6.70;99.90
25208;DHT22;13153;52.316;21.166;2024-03-02T07:09:45;6.70;99.90
25208;DHT22;13153;52.316;21.166;2024-03-02T07:12:11;6.70;99.90
25208;DHT22;13153;52.316;21.166;2024-03-02T07:14:37;6.70;99.90
25208;DHT22;13153;52.316;21.166;2024-03-02T07:17:21;6.70;99.90
25208;DHT22;13153;52.316;21.166;2024-03-02T07:19:47;6.80;99.90
25208;DHT22;13153;52.316;21.166;2024-03-02T07:22:13;6.80;99.90
25208;DHT22;13153;52.316;21.166;2024-03-02T07:24:43;6.80;99.90
25208;DHT22;13153;52.316;21.166;2024-03-02T07:27:09;6.80;99.90
25208;DHT22;13153;52.316;21.166;2024-03-02T07:29:36;6.90;99.90
25208;DHT22;13153;52.316;21.166;2024-03-02T07:32:02;6.90;99.90
25208;DHT22;13153;52.316;21.166;2024-03-02T07:34:28;6.90;99.90
25208;DHT22;13153;52.316;21.166;2024-03-02T07:36:53;6.90;99.90
25208;DHT22;13153;52.316;21.166;2024-03-02T07:39:19;6.90;99.90
25208;DHT22;13153;52.316;21.166;2024-03-02T07:41:45;6.90;99.90
25208;DHT22;13153;52.316;21.166;2024-03-02T07:44:12;6.90;99.90
25208;DHT22;13153;52.316;21.166;2024-03-02T07:46:42;6.90;99.90
25208;DHT22;13153;52.316;21.166;2024-03-02T07:49:08;7.00;99.90
25208;DHT22;13153;52.316;21.166;2024-03-02T07:51:35;7.10;99.90
25208;DHT22;13153;52.316;21.166;2024-03-02T07:54:01;7.10;99.90
25208;DHT22;13153;52.316;21.166;2024-03-02T07:56:28;7.10;99.90
25208;DHT22;13153;52.316;21.166;2024-03-02T07:58:54;7.20;99.90
25208;DHT22;13153;52.316;21.166;2024-03-02T08:01:22;7.20;99.90
25208;DHT22;13153;52.316;21.166;2024-03-02T08:03:48;7.20;99.90
25208;DHT22;13153;52.316;21.166;2024-03-02T08:06:16;7.20;99.90
25208;DHT22;13153;52.316;21.166;2024-03-02T08:08:46;7.10;99.90
25208;DHT22;13153;52.316;21.166;2024-03-02T08:11:11;7.20;99.90
25208;DHT22;13153;52.316;21.166;2024-03-02T08:13:38;7.30;99.90
25208;DHT22;13153;52.316;21.166;2024-03-02T08:16:04;7.30;99.90
25208;DHT22;13153;52.316;21.166;2024-03-02T08:18:33;7.40;99.90
25208;DHT22;13153;52.316;21.166;2024-03-02T08:21:00;7.40;99.90
25208;DHT22;13153;52.316;21.166;2024-03-02T08:23:26;7.50;99.90
25208;DHT22;13153;52.316;21.166;2024-03-02T08:25:51;7.40;99.90
25208;DHT22;13153;52.316;21.166;2024-03-02T08:28:17;7.50;99.90
25208;DHT22;13153;52.316;21.166;2024-03-02T08:30:43;7.50;99.90
25208;DHT22;13153;52.316;21.166;2024-03-02T08:33:09;7.50;99.90
25208;DHT22;13153;52.316;21.166;2024-03-02T08:35:34;7.50;99.90
25208;DHT22;13153;52.316;21.166;2024-03-02T08:38:03;7.60;99.90
25208;DHT22;13153;52.316;21.166;2024-03-02T08:40:30;7.50;99.90
25208;DHT22;13153;52.316;21.166;2024-03-02T08:42:56;7.60;99.90
25208;DHT22;13153;52.316;21.166;2024-03-02T08:45:22;7.70;99.90
25208;DHT22;13153;52.316;21.166;2024-03-02T08:47:48;7.80;98.60
25208;DHT22;13153;52.316;21.166;2024-03-02T08:50:14;7.90;96.20
25208;DHT22;13153;52.316;21.166;2024-03-02T08:52:40;7.90;91.80
25208;DHT22;13153;52.316;21.166;2024-03-02T08:55:06;8.00;69.20
25208;DHT22;13153;52.316;21.166;2024-03-02T08:57:33;8.00;68.60
25208;DHT22;13153;52.316;21.166;2024-03-02T08:59:59;7.90;65.80
25208;DHT22;13153;52.316;21.166;2024-03-02T09:02:26;7.90;66.90
25208;DHT22;13153;52.316;21.166;2024-03-02T09:04:52;7.90;86.70
25208;DHT22;13153;52.316;21.166;2024-03-02T09:07:18;8.00;90.20
25208;DHT22;13153;52.316;21.166;2024-03-02T09:09:44;8.10;65.00
25208;DHT22;13153;52.316;21.166;2024-03-02T09:12:09;8.00;68.10
25208;DHT22;13153;52.316;21.166;2024-03-02T09:14:36;8.00;69.40
25208;DHT22;13153;52.316;21.166;2024-03-02T09:17:03;8.10;67.70
25208;DHT22;13153;52.316;21.166;2024-03-02T09:19:29;8.10;54.80
25208;DHT22;13153;52.316;21.166;2024-03-02T09:21:55;8.10;50.40
25208;DHT22;13153;52.316;21.166;2024-03-02T09:24:21;8.10;44.10
25208;DHT22;13153;52.316;21.166;2024-03-02T09:26:47;8.10;50.60
25208;DHT22;13153;52.316;21.166;2024-03-02T09:29:13;8.20;50.70
25208;DHT22;13153;52.316;21.166;2024-03-02T09:31:40;8.30;53.20
25208;DHT22;13153;52.316;21.166;2024-03-02T09:34:07;8.30;27.90
25208;DHT22;13153;52.316;21.166;2024-03-02T09:36:33;8.20;36.20
25208;DHT22;13153;52.316;21.166;2024-03-02T09:38:59;8.20;50.70
25208;DHT22;13153;52.316;21.166;2024-03-02T09:41:24;8.20;53.20
25208;DHT22;13153;52.316;21.166;2024-03-02T09:43:51;8.30;47.00
25208;DHT22;13153;52.316;21.166;2024-03-02T09:46:17;8.20;43.80
25208;DHT22;13153;52.316;21.166;2024-03-02T09:48:46;8.20;45.20
25208;DHT22;13153;52.316;21.166;2024-03-02T09:51:12;8.10;53.00
25208;DHT22;13153;52.316;21.166;2024-03-02T09:53:39;8.10;52.40
25208;DHT22;13153;52.316;21.166;2024-03-02T09:56:06;8.20;67.10
25208;DHT22;13153;52.316;21.166;2024-03-02T09:58:32;8.20;62.20
25208;DHT22;13153;52.316;21.166;2024-03-02T10:00:58;8.20;58.40
25208;DHT22;13153;52.316;21.166;2024-03-02T10:03:23;8.30;51.40
25208;DHT22;13153;52.316;21.166;2024-03-02T10:05:52;8.40;40.10
25208;DHT22;13153;52.316;21.166;2024-03-02T10:08:18;8.50;24.30
25208;DHT22;13153;52.316;21.166;2024-03-02T10:10:44;8.50;12.70
25208;DHT22;13153;52.316;21.166;2024-03-02T10:13:10;8.50;9.40
25208;DHT22;13153;52.316;21.166;2024-03-02T10:15:38;8.60;1.00
25208;DHT22;13153;52.316;21.166;2024-03-02T10:18:11;8.60;1.00
25208;DHT22;13153;52.316;21.166;2024-03-02T10:20:42;8.70;1.00
25208;DHT22;13153;52.316;21.166;2024-03-02T10:23:13;8.60;1.00
25208;DHT22;13153;52.316;21.166;2024-03-02T10:25:40;8.70;1.00
25208;DHT22;13153;52.316;21.166;2024-03-02T10:28:06;8.70;1.00
25208;DHT22;13153;52.316;21.166;2024-03-02T10:30:33;8.60;1.00
25208;DHT22;13153;52.316;21.166;2024-03-02T10:33:03;8.70;1.00
25208;DHT22;13153;52.316;21.166;2024-03-02T10:35:32;8.60;1.00
25208;DHT22;13153;52.316;21.166;2024-03-02T10:38:00;8.70;1.00
25208;DHT22;13153;52.316;21.166;2024-03-02T10:40:29;8.80;1.00
25208;DHT22;13153;52.316;21.166;2024-03-02T10:42:55;8.80;1.00
25208;DHT22;13153;52.316;21.166;2024-03-02T10:45:23;8.80;1.00
25208;DHT22;13153;52.316;21.166;2024-03-02T10:47:50;8.90;1.00
25208;DHT22;13153;52.316;21.166;2024-03-02T10:50:16;9.00;1.00
25208;DHT22;13153;52.316;21.166;2024-03-02T10:52:42;9.00;1.00
25208;DHT22;13153;52.316;21.166;2024-03-02T10:55:09;9.10;1.00
25208;DHT22;13153;52.316;21.166;2024-03-02T10:57:54;9.20;1.00
25208;DHT22;13153;52.316;21.166;2024-03-02T11:00:24;9.30;1.00
25208;DHT22;13153;52.316;21.166;2024-03-02T11:03:04;9.30;1.00
25208;DHT22;13153;52.316;21.166;2024-03-02T11:05:39;9.40;1.00
25208;DHT22;13153;52.316;21.166;2024-03-02T11:08:12;9.50;1.00
25208;DHT22;13153;52.316;21.166;2024-03-02T11:13:27;9.40;1.00
25208;DHT22;13153;52.316;21.166;2024-03-02T11:16:05;9.40;1.00
25208;DHT22;13153;52.316;21.166;2024-03-02T11:18:36;9.50;1.00
25208;DHT22;13153;52.316;21.166;2024-03-02T11:21:03;9.50;1.00
25208;DHT22;13153;52.316;21.166;2024-03-02T11:23:33;9.50;1.00
25208;DHT22;13153;52.316;21.166;2024-03-02T11:26:21;9.50;1.00
25208;DHT22;13153;52.316;21.166;2024-03-02T11:28:50;9.60;1.00
25208;DHT22;13153;52.316;21.166;2024-03-02T11:31:16;9.60;1.00
25208;DHT22;13153;52.316;21.166;2024-03-02T11:33:42;9.70;1.00
25208;DHT22;13153;52.316;21.166;2024-03-02T11:36:09;9.70;1.00
25208;DHT22;13153;52.316;21.166;2024-03-02T11:38:36;9.70;1.00
25208;DHT22;13153;52.316;21.166;2024-03-02T11:41:05;9.60;1.00
25208;DHT22;13153;52.316;21.166;2024-03-02T11:43:37;9.60;1.00
25208;DHT22;13153;52.316;21.166;2024-03-02T11:46:05;9.60;1.00
25208;DHT22;13153;52.316;21.166;2024-03-02T11:48:33;9.70;1.00
25208;DHT22;13153;52.316;21.166;2024-03-02T11:51:01;9.90;1.00
25208;DHT22;13153;52.316;21.166;2024-03-02T11:53:28;9.90;1.00
25208;DHT22;13153;52.316;21.166;2024-03-02T11:55:58;9.80;1.00
25208;DHT22;13153;52.316;21.166;2024-03-02T11:58:24;9.90;1.00
25208;DHT22;13153;52.316;21.166;2024-03-02T12:00:53;10.00;1.00
25208;DHT22;13153;52.316;21.166;2024-03-02T12:03:22;9.90;1.00
25208;DHT22;13153;52.316;21.166;2024-03-02T12:05:50;10.00;1.00
25208;DHT22;13153;52.316;21.166;2024-03-02T12:08:18;10.00;1.00
25208;DHT22;13153;52.316;21.166;2024-03-02T12:10:59;10.10;1.00
25208;DHT22;13153;52.316;21.166;2024-03-02T12:13:27;10.10;1.00
25208;DHT22;13153;52.316;21.166;2024-03-02T12:15:54;10.20;1.00
25208;DHT22;13153;52.316;21.166;2024-03-02T12:18:24;10.10;1.00
25208;DHT22;13153;52.316;21.166;2024-03-02T12:20:50;9.90;1.00
25208;DHT22;13153;52.316;21.166;2024-03-02T12:23:23;9.70;1.00
25208;DHT22;13153;52.316;21.166;2024-03-02T12:25:50;9.70;1.00
25208;DHT22;13153;52.316;21.166;2024-03-02T12:28:16;9.70;1.00
25208;DHT22;13153;52.316;21.166;2024-03-02T12:30:43;9.80;1.00
25208;DHT22;13153;52.316;21.166;2024-03-02T12:33:11;9.90;1.00
25208;DHT22;13153;52.316;21.166;2024-03-02T12:35:36;10.00;1.00
25208;DHT22;13153;52.316;21.166;2024-03-02T12:38:02;10.00;1.00
25208;DHT22;13153;52.316;21.166;2024-03-02T12:40:28;10.00;1.00
25208;DHT22;13153;52.316;21.166;2024-03-02T12:42:57;10.00;1.00
25208;DHT22;13153;52.316;21.166;2024-03-02T12:45:23;9.90;1.00
25208;DHT22;13153;52.316;21.166;2024-03-02T12:47:51;9.90;1.00
25208;DHT22;13153;52.316;21.166;2024-03-02T12:50:17;9.90;1.00
25208;DHT22;13153;52.316;21.166;2024-03-02T12:52:43;9.90;1.00
25208;DHT22;13153;52.316;21.166;2024-03-02T12:55:15;10.00;1.00
25208;DHT22;13153;52.316;21.166;2024-03-02T12:57:42;10.00;1.00
25208;DHT22;13153;52.316;21.166;2024-03-02T13:00:09;9.90;1.00
25208;DHT22;13153;52.316;21.166;2024-03-02T13:02:40;9.90;1.00
25208;DHT22;13153;52.316;21.166;2024-03-02T13:05:07;9.90;1.00
25208;DHT22;13153;52.316;21.166;2024-03-02T13:07:39;9.90;1.00
25208;DHT22;13153;52.316;21.166;2024-03-02T13:10:06;9.90;1.00
25208;DHT22;13153;52.316;21.166;2024-03-02T13:12:36;9.90;1.00
25208;DHT22;13153;52.316;21.166;2024-03-02T13:15:03;9.90;1.00
25208;DHT22;13153;52.316;21.166;2024-03-02T13:17:30;9.80;1.00
25208;DHT22;13153;52.316;21.166;2024-03-02T13:19:59;9.80;1.00
25208;DHT22;13153;52.316;21.166;2024-03-02T13:22:26;9.90;1.00
25208;DHT22;13153;52.316;21.166;2024-03-02T13:24:53;9.80;1.00
25208;DHT22;13153;52.316;21.166;2024-03-02T13:27:22;9.80;1.00
25208;DHT22;13153;52.316;21.166;2024-03-02T13:29:48;9.80;1.00
25208;DHT22;13153;52.316;21.166;2024-03-02T13:32:15;9.80;1.00
25208;DHT22;13153;52.316;21.166;2024-03-02T13:34:42;9.80;1.00
25208;DHT22;13153;52.316;21.166;2024-03-02T13:37:08;9.70;1.00
25208;DHT22;13153;52.316;21.166;2024-03-02T13:39:35;9.70;1.00
25208;DHT22;13153;52.316;21.166;2024-03-02T13:42:11;9.70;1.00
25208;DHT22;13153;52.316;21.166;2024-03-02T13:44:39;9.70;1.00
25208;DHT22;13153;52.316;21.166;2024-03-02T13:47:05;9.70;1.00
25208;DHT22;13153;52.316;21.166;2024-03-02T13:49:31;9.60;1.00
25208;DHT22;13153;52.316;21.166;2024-03-02T13:52:05;9.60;1.00
25208;DHT22;13153;52.316;21.166;2024-03-02T13:54:43;9.70;1.00
25208;DHT22;13153;52.316;21.166;2024-03-02T13:57:11;9.70;1.00
25208;DHT22;13153;52.316;21.166;2024-03-02T13:59:38;9.60;1.00
25208;DHT22;13153;52.316;21.166;2024-03-02T14:02:05;9.50;1.00
25208;DHT22;13153;52.316;21.166;2024-03-02T14:04:32;9.60;1.00
25208;DHT22;13153;52.316;21.166;2024-03-02T14:06:59;9.60;1.00
25208;DHT22;13153;52.316;21.166;2024-03-02T14:09:26;9.60;1.00
25208;DHT22;13153;52.316;21.166;2024-03-02T14:11:52;9.50;1.00
25208;DHT22;13153;52.316;21.166;2024-03-02T14:14:19;9.50;1.00
25208;DHT22;13153;52.316;21.166;2024-03-02T14:16:45;9.50;1.00
25208;DHT22;13153;52.316;21.166;2024-03-02T14:19:11;9.40;1.00
25208;DHT22;13153;52.316;21.166;2024-03-02T14:21:38;9.40;1.00
25208;DHT22;13153;52.316;21.166;2024-03-02T14:24:04;9.40;1.00
25208;DHT22;13153;52.316;21.166;2024-03-02T14:26:32;9.40;1.00
25208;DHT22;13153;52.316;21.166;2024-03-02T14:28:59;9.40;1.00
25208;DHT22;13153;52.316;21.166;2024-03-02T14:31:27;9.30;1.00
25208;DHT22;13153;52.316;21.166;2024-03-02T14:33:53;9.30;1.00
25208;DHT22;13153;52.316;21.166;2024-03-02T14:36:19;9.20;1.00
25208;DHT22;13153;52.316;21.166;2024-03-02T14:38:46;9.30;1.00
25208;DHT22;13153;52.316;21.166;2024-03-02T14:41:12;9.30;1.00
25208;DHT22;13153;52.316;21.166;2024-03-02T14:43:38;9.20;1.00
25208;DHT22;13153;52.316;21.166;2024-03-02T14:46:05;9.20;1.00
25208;DHT22;13153;52.316;21.166;2024-03-02T14:48:34;9.30;1.00
25208;DHT22;13153;52.316;21.166;2024-03-02T14:51:03;9.30;1.00
25208;DHT22;13153;52.316;21.166;2024-03-02T14:53:30;9.30;1.00
25208;DHT22;13153;52.316;21.166;2024-03-02T14:55:56;9.20;1.00
25208;DHT22;13153;52.316;21.166;2024-03-02T14:58:21;9.20;1.00
25208;DHT22;13153;52.316;21.166;2024-03-02T15:00:47;9.20;1.00
25208;DHT22;13153;52.316;21.166;2024-03-02T15:03:13;9.10;1.00
25208;DHT22;13153;52.316;21.166;2024-03-02T15:05:39;9.10;1.00
25208;DHT22;13153;52.316;21.166;2024-03-02T15:08:06;9.10;1.00
25208;DHT22;13153;52.316;21.166;2024-03-02T15:10:32;9.00;1.00
25208;DHT22;13153;52.316;21.166;2024-03-02T15:12:58;9.00;1.00
25208;DHT22;13153;52.316;21.166;2024-03-02T15:15:24;9.10;1.00
25208;DHT22;13153;52.316;21.166;2024-03-02T15:17:50;9.00;1.00
25208;DHT22;13153;52.316;21.166;2024-03-02T15:20:16;9.00;1.00
25208;DHT22;13153;52.316;21.166;2024-03-02T15:22:42;9.10;1.00
25208;DHT22;13153;52.316;21.166;2024-03-02T15:25:07;9.00;1.00
25208;DHT22;13153;52.316;21.166;2024-03-02T15:27:33;9.10;1.00
25208;DHT22;13153;52.316;21.166;2024-03-02T15:29:59;9.00;1.00
25208;DHT22;13153;52.316;21.166;2024-03-02T15:32:26;9.10;1.00
25208;DHT22;13153;52.316;21.166;2024-03-02T15:34:53;9.10;1.00
25208;DHT22;13153;52.316;21.166;2024-03-02T15:37:19;9.00;1.00
25208;DHT22;13153;52.316;21.166;2024-03-02T15:39:44;9.00;1.00
25208;DHT22;13153;52.316;21.166;2024-03-02T15:42:10;9.00;1.00
25208;DHT22;13153;52.316;21.166;2024-03-02T15:44:36;9.00;1.00
25208;DHT22;13153;52.316;21.166;2024-03-02T15:47:02;8.90;1.00